Time;durP1;ratioP1;P1;durP2;ratioP2;P2;SDS_P1;SDS_P2;PMS_P1;PMS_P2;Temp;Humidity;BMP_temperature;BMP_pressure;BME280_temperature;BME280_humidity;BME280_pressure;Samples;Min_cycle;Max_cycle;Signal;HPM_P1;HPM_P2
2024/01/05 00:00:15;;;;;;;;;;;;;;;;;;5075875;28;835;-57
2024/01/05 00:02:41;;;;;;;;;;;;;;;;;;5075284;28;1906;-57
2024/01/05 00:05:06;;;;;;;;;;;;;;;;;;5075295;28;1222;-57
2024/01/05 00:07:31;;;;;;;;;;;;;;;;;;5073712;28;880;-58
2024/01/05 00:09:58;;;;;;;;;;;;;;;;;;5075779;28;1051;-57
2024/01/05 00:12:23;;;;;;;;;;;;;;;;;;5075373;28;1073;-57
2024/01/05 00:14:48;;;;;;;;;;;;;;;;;;5074666;28;840;-57
2024/01/05 00:17:14;;;;;;;;;;;;;;;;;;5075138;28;854;-56
2024/01/05 00:19:40;;;;;;;;;;;;;;;;;;5074885;28;1110;-57
2024/01/05 00:22:06;;;;;;;;;;;;;;;;;;5075201;28;856;-56
2024/01/05 00:24:31;;;;;;;;;;;;;;;;;;5075224;28;1910;-55
2024/01/05 00:26:56;;;;;;;;;;;;;;;;;;5074933;28;974;-57
2024/01/05 00:29:22;;;;;;;;;;;;;;;;;;5074985;28;907;-57
2024/01/05 00:31:47;;;;;;;;;;;;;;;;;;5074862;28;951;-57
2024/01/05 00:34:12;;;;;;;;;;;;;;;;;;5075303;28;973;-56
2024/01/05 00:36:37;;;;;;;;;;;;;;;;;;5075144;28;883;-58
2024/01/05 00:39:03;;;;;;;;;;;;;;;;;;5074721;28;896;-58
2024/01/05 00:41:28;;;;;;;;;;;;;;;;;;5074795;28;849;-57
2024/01/05 00:43:53;;;;;;;;;;;;;;;;;;5074810;28;1975;-58
2024/01/05 00:46:19;;;;;;;;;;;;;;;;;;5074993;28;944;-58
2024/01/05 00:48:44;;;;;;;;;;;;;;;;;;5074702;28;883;-58
2024/01/05 00:51:09;;;;;;;;;;;;;;;;;;5075279;28;821;-57
2024/01/05 00:53:35;;;;;;;;;;;;;;;;;;5074655;28;917;-58
2024/01/05 00:56:00;;;;;;;;;;;;;;;;;;5073974;28;848;-57
2024/01/05 00:58:25;;;;;;;;;;;;;;;;;;5075060;28;868;-57
2024/01/05 01:00:50;;;;;;;;;;;;;;;;;;5074745;28;837;-57
2024/01/05 01:03:16;;;;;;;;;;;;;;;;;;5074004;28;1909;-57
2024/01/05 01:05:41;;;;;;;;;;;;;;;;;;5073813;28;848;-57
2024/01/05 01:08:07;;;;;;;;;;;;;;;;;;5074169;28;920;-57
2024/01/05 01:10:32;;;;;;;;;;;;;;;;;;5073774;28;841;-57
2024/01/05 01:12:58;;;;;;;;;;;;;;;;;;5074046;28;849;-57
2024/01/05 01:15:23;;;;;;;;;;;;;;;;;;5073998;28;939;-57
2024/01/05 01:17:48;;;;;;;;;;;;;;;;;;5073942;28;947;-57
2024/01/05 01:20:13;;;;;;;;;;;;;;;;;;5073902;28;912;-56
2024/01/05 01:22:39;;;;;;;;;;;;;;;;;;5073898;28;1918;-57
2024/01/05 01:25:04;;;;;;;;;;;;;;;;;;5073745;28;954;-57
2024/01/05 01:27:30;;;;;;;;;;;;;;;;;;5072625;28;905;-57
2024/01/05 01:29:55;;;;;;;;;;;;;;;;;;5074520;28;1148;-57
2024/01/05 01:32:20;;;;;;;;;;;;;;;;;;5073957;28;888;-57
2024/01/05 01:34:46;;;;;;;;;;;;;;;;;;5073702;28;1027;-58
2024/01/05 01:37:11;;;;;;;;;;;;;;;;;;5072783;28;873;-57
2024/01/05 01:39:36;;;;;;;;;;;;;;;;;;5073854;28;979;-57
2024/01/05 01:42:02;;;;;;;;;;;;;;;;;;5073662;28;935;-57
2024/01/05 01:44:29;;;;;;;;;;;;;;;;;;5074198;28;1969;-57
2024/01/05 01:46:55;;;;;;;;;;;;;;;;;;5073631;28;887;-57
2024/01/05 01:49:21;;;;;;;;;;;;;;;;;;5073748;28;880;-57
2024/01/05 01:51:46;;;;;;;;;;;;;;;;;;5073501;28;939;-57
2024/01/05 01:54:12;;;;;;;;;;;;;;;;;;5072485;28;1239;-57
2024/01/05 01:56:38;;;;;;;;;;;;;;;;;;5088793;28;1306;-57
2024/01/05 01:59:04;;;;;;;;;;;;;;;;;;5091156;28;1167;-57
2024/01/05 02:01:29;;;;;;;;;;;;;;;;;;5093479;28;954;-58
2024/01/05 02:03:55;;;;;;;;;;;;;;;;;;5093130;28;1905;-57
2024/01/05 02:06:20;;;;;;;;;;;;;;;;;;5094884;28;812;-57
2024/01/05 02:08:46;;;;;;;;;;;;;;;;;;5096128;28;1361;-57
2024/01/05 02:11:12;;;;;;;;;;;;;;;;;;5097626;28;852;-57
2024/01/05 02:13:37;;;;;;;;;;;;;;;;;;5098201;28;923;-58
2024/01/05 02:16:03;;;;;;;;;;;;;;;;;;5098162;28;856;-58
2024/01/05 02:18:28;;;;;;;;;;;;;;;;;;5097818;28;828;-57
2024/01/05 02:20:53;;;;;;;;;;;;;;;;;;5097861;28;907;-56
2024/01/05 02:23:28;;;;;;;;;;;;;;;;;;5097813;28;1974;-57
2024/01/05 02:25:53;;;;;;;;;;;;;;;;;;5096257;28;1363;-57
2024/01/05 02:28:19;;;;;;;;;;;;;;;;;;5097928;28;792;-57
2024/01/05 02:30:44;;;;;;;;;;;;;;;;;;5097882;28;1112;-58
2024/01/05 02:33:10;;;;;;;;;;;;;;;;;;5098077;28;824;-57
2024/01/05 02:35:35;;;;;;;;;;;;;;;;;;5097751;28;1042;-57
2024/01/05 02:38:01;;;;;;;;;;;;;;;;;;5097445;28;903;-57
2024/01/05 02:40:26;;;;;;;;;;;;;;;;;;5097775;28;908;-56
2024/01/05 02:42:51;;;;;;;;;;;;;;;;;;5097601;28;1955;-57
2024/01/05 02:45:20;;;;;;;;;;;;;;;;;;5097241;28;859;-58
2024/01/05 02:47:46;;;;;;;;;;;;;;;;;;5097105;28;840;-57
2024/01/05 02:50:12;;;;;;;;;;;;;;;;;;5097423;28;943;-57
2024/01/05 02:52:37;;;;;;;;;;;;;;;;;;5097218;28;789;-57
2024/01/05 02:55:02;;;;;;;;;;;;;;;;;;5097017;28;887;-56
2024/01/05 02:57:28;;;;;;;;;;;;;;;;;;5096838;28;904;-57
2024/01/05 02:59:53;;;;;;;;;;;;;;;;;;5096803;28;892;-57
2024/01/05 03:02:18;;;;;;;;;;;;;;;;;;5097260;28;880;-57
2024/01/05 03:04:43;;;;;;;;;;;;;;;;;;5096492;28;1906;-57
2024/01/05 03:07:09;;;;;;;;;;;;;;;;;;5095557;28;924;-57
2024/01/05 03:09:35;;;;;;;;;;;;;;;;;;5096758;28;936;-57
2024/01/05 03:12:00;;;;;;;;;;;;;;;;;;5096760;28;783;-57
2024/01/05 03:14:25;;;;;;;;;;;;;;;;;;5095814;28;1712;-57
2024/01/05 03:16:51;;;;;;;;;;;;;;;;;;5096932;28;904;-57
2024/01/05 03:19:16;;;;;;;;;;;;;;;;;;5096792;28;828;-57
2024/01/05 03:21:42;;;;;;;;;;;;;;;;;;5096383;28;1276;-57
2024/01/05 03:24:07;;;;;;;;;;;;;;;;;;5096367;28;1949;-57
2024/01/05 03:26:33;;;;;;;;;;;;;;;;;;5096630;28;904;-57
2024/01/05 03:28:58;;;;;;;;;;;;;;;;;;5096289;28;829;-57
2024/01/05 03:31:25;;;;;;;;;;;;;;;;;;5096219;28;912;-59
2024/01/05 03:33:51;;;;;;;;;;;;;;;;;;5096497;28;879;-57
2024/01/05 03:36:16;;;;;;;;;;;;;;;;;;5096635;28;806;-57
2024/01/05 03:38:41;;;;;;;;;;;;;;;;;;5095879;28;1943;-58
2024/01/05 03:41:07;;;;;;;;;;;;;;;;;;5096162;28;812;-57
2024/01/05 03:43:32;;;;;;;;;;;;;;;;;;5095867;28;1886;-57
2024/01/05 03:45:57;;;;;;;;;;;;;;;;;;5095871;28;1057;-58
2024/01/05 03:48:22;;;;;;;;;;;;;;;;;;5096175;28;919;-57
2024/01/05 03:50:48;;;;;;;;;;;;;;;;;;5094779;28;837;-57
2024/01/05 03:53:15;;;;;;;;;;;;;;;;;;5096202;28;1007;-58
2024/01/05 03:55:40;;;;;;;;;;;;;;;;;;5095474;28;970;-58
2024/01/05 03:58:06;;;;;;;;;;;;;;;;;;5095944;28;856;-57
2024/01/05 04:00:33;;;;;;;;;;;;;;;;;;5095932;28;923;-57
2024/01/05 04:02:58;;;;;;;;;;;;;;;;;;5095513;28;1893;-57
2024/01/05 04:05:23;;;;;;;;;;;;;;;;;;5096082;28;793;-57
2024/01/05 04:07:48;;;;;;;;;;;;;;;;;;5095774;28;876;-57
2024/01/05 04:10:14;;;;;;;;;;;;;;;;;;5096195;28;962;-58
2024/01/05 04:12:39;;;;;;;;;;;;;;;;;;5096063;28;824;-57
2024/01/05 04:15:05;;;;;;;;;;;;;;;;;;5096131;28;765;-57
2024/01/05 04:17:30;;;;;;;;;;;;;;;;;;5095439;28;1081;-57
2024/01/05 04:19:55;;;;;;;;;;;;;;;;;;5095470;28;1007;-57
2024/01/05 04:22:21;;;;;;;;;;;;;;;;;;5095233;28;1446;-57
2024/01/05 04:24:46;;;;;;;;;;;;;;;;;;5095602;28;1975;-57
2024/01/05 04:27:11;;;;;;;;;;;;;;;;;;5095264;28;892;-57
2024/01/05 04:29:38;;;;;;;;;;;;;;;;;;5094806;28;998;-57
2024/01/05 04:32:04;;;;;;;;;;;;;;;;;;5095515;28;915;-56
2024/01/05 04:34:29;;;;;;;;;;;;;;;;;;5095290;28;852;-57
2024/01/05 04:36:54;;;;;;;;;;;;;;;;;;5094974;28;817;-57
2024/01/05 04:39:19;;;;;;;;;;;;;;;;;;5094624;28;1031;-57
2024/01/05 04:41:45;;;;;;;;;;;;;;;;;;5094566;28;924;-56
2024/01/05 04:44:10;;;;;;;;;;;;;;;;;;5093461;28;1957;-56
2024/01/05 04:46:35;;;;;;;;;;;;;;;;;;5093839;28;940;-57
2024/01/05 04:49:00;;;;;;;;;;;;;;;;;;5094814;28;1057;-57
2024/01/05 04:51:26;;;;;;;;;;;;;;;;;;5094776;28;836;-56
2024/01/05 04:53:51;;;;;;;;;;;;;;;;;;5094596;28;934;-57
2024/01/05 04:56:17;;;;;;;;;;;;;;;;;;5095134;28;913;-57
2024/01/05 04:58:42;;;;;;;;;;;;;;;;;;5093146;28;817;-57
2024/01/05 05:01:07;;;;;;;;;;;;;;;;;;5094680;28;895;-57
2024/01/05 05:03:33;;;;;;;;;;;;;;;;;;5094378;28;1963;-57
2024/01/05 05:05:58;;;;;;;;;;;;;;;;;;5094242;28;982;-57
2024/01/05 05:08:23;;;;;;;;;;;;;;;;;;5094936;28;901;-57
2024/01/05 05:10:48;;;;;;;;;;;;;;;;;;5094714;28;969;-57
2024/01/05 05:13:14;;;;;;;;;;;;;;;;;;5094761;28;824;-57
2024/01/05 05:15:39;;;;;;;;;;;;;;;;;;5094554;28;959;-57
2024/01/05 05:18:05;;;;;;;;;;;;;;;;;;5094599;28;983;-56
2024/01/05 05:20:30;;;;;;;;;;;;;;;;;;5094236;28;824;-56
2024/01/05 05:22:55;;;;;;;;;;;;;;;;;;5094367;28;1874;-56
2024/01/05 05:25:21;;;;;;;;;;;;;;;;;;5094050;28;1033;-55
2024/01/05 05:27:46;;;;;;;;;;;;;;;;;;5094427;28;857;-55
2024/01/05 05:30:11;;;;;;;;;;;;;;;;;;5093980;28;911;-55
2024/01/05 05:32:37;;;;;;;;;;;;;;;;;;5094809;28;1153;-56
2024/01/05 05:35:02;;;;;;;;;;;;;;;;;;5093875;28;828;-56
2024/01/05 05:37:27;;;;;;;;;;;;;;;;;;5093934;28;911;-56
2024/01/05 05:39:53;;;;;;;;;;;;;;;;;;5094041;28;1057;-56
2024/01/05 05:42:18;;;;;;;;;;;;;;;;;;5091994;28;976;-56
2024/01/05 05:44:43;;;;;;;;;;;;;;;;;;5094335;28;1973;-57
2024/01/05 05:47:08;;;;;;;;;;;;;;;;;;5094560;28;656;-55
2024/01/05 05:49:34;;;;;;;;;;;;;;;;;;5095082;28;1144;-56
2024/01/05 05:51:59;;;;;;;;;;;;;;;;;;5094468;28;929;-57
2024/01/05 05:54:24;;;;;;;;;;;;;;;;;;5094288;28;1006;-56
2024/01/05 05:56:49;;;;;;;;;;;;;;;;;;5094325;28;912;-56
2024/01/05 05:59:15;;;;;;;;;;;;;;;;;;5094350;28;914;-55
2024/01/05 06:01:40;;;;;;;;;;;;;;;;;;5094568;28;1178;-55
2024/01/05 06:04:07;;;;;;;;;;;;;;;;;;5093894;28;1906;-56
2024/01/05 06:06:33;;;;;;;;;;;;;;;;;;5094199;28;928;-56
2024/01/05 06:08:59;;;;;;;;;;;;;;;;;;5093989;28;844;-57
2024/01/05 06:11:26;;;;;;;;;;;;;;;;;;5094064;28;817;-55
2024/01/05 06:13:52;;;;;;;;;;;;;;;;;;5094453;28;951;-55
2024/01/05 06:16:17;;;;;;;;;;;;;;;;;;5093247;28;911;-54
2024/01/05 06:18:42;;;;;;;;;;;;;;;;;;5093830;28;895;-56
2024/01/05 06:21:08;;;;;;;;;;;;;;;;;;5093576;28;943;-56
2024/01/05 06:23:33;;;;;;;;;;;;;;;;;;5093726;28;1898;-54
2024/01/05 06:25:58;;;;;;;;;;;;;;;;;;5093369;28;1035;-55
2024/01/05 06:28:23;;;;;;;;;;;;;;;;;;5093387;28;891;-55
2024/01/05 06:30:49;;;;;;;;;;;;;;;;;;5093839;28;986;-55
2024/01/05 06:33:14;;;;;;;;;;;;;;;;;;5093224;28;915;-55
2024/01/05 06:35:39;;;;;;;;;;;;;;;;;;5093987;28;915;-55
2024/01/05 06:38:04;;;;;;;;;;;;;;;;;;5093818;28;1136;-56
2024/01/05 06:40:30;;;;;;;;;;;;;;;;;;5093709;28;991;-56
2024/01/05 06:42:57;;;;;;;;;;;;;;;;;;5093417;28;1949;-56
2024/01/05 06:45:23;;;;;;;;;;;;;;;;;;5093664;28;836;-57
2024/01/05 06:47:48;;;;;;;;;;;;;;;;;;5093711;28;817;-56
2024/01/05 06:50:13;;;;;;;;;;;;;;;;;;5093762;28;955;-58
2024/01/05 06:52:38;;;;;;;;;;;;;;;;;;5095235;28;1042;-57
2024/01/05 06:55:04;;;;;;;;;;;;;;;;;;5097284;28;890;-57
2024/01/05 06:57:31;;;;;;;;;;;;;;;;;;5097491;28;872;-58
2024/01/05 06:59:56;;;;;;;;;;;;;;;;;;5096943;28;921;-57
2024/01/05 07:02:22;;;;;;;;;;;;;;;;;;5096970;28;951;-56
2024/01/05 07:04:47;;;;;;;;;;;;;;;;;;5096766;28;1910;-56
2024/01/05 07:07:12;;;;;;;;;;;;;;;;;;5096590;28;904;-57
2024/01/05 07:09:38;;;;;;;;;;;;;;;;;;5097149;28;869;-56
2024/01/05 07:12:03;;;;;;;;;;;;;;;;;;5096808;28;1178;-57
2024/01/05 07:14:29;;;;;;;;;;;;;;;;;;5097037;28;754;-57
2024/01/05 07:16:56;;;;;;;;;;;;;;;;;;5096847;28;867;-57
2024/01/05 07:19:21;;;;;;;;;;;;;;;;;;5096877;28;951;-59
2024/01/05 07:21:47;;;;;;;;;;;;;;;;;;5096851;28;1003;-57
2024/01/05 07:24:15;;;;;;;;;;;;;;;;;;5096834;28;1909;-58
2024/01/05 07:26:40;;;;;;;;;;;;;;;;;;5096965;28;917;-57
2024/01/05 07:29:06;;;;;;;;;;;;;;;;;;5095448;28;1269;-57
2024/01/05 07:31:31;;;;;;;;;;;;;;;;;;5094380;28;1199;-57
2024/01/05 07:33:56;;;;;;;;;;;;;;;;;;5082660;28;1186;-57
2024/01/05 07:36:22;;;;;;;;;;;;;;;;;;5080410;28;1163;-57
2024/01/05 07:38:48;;;;;;;;;;;;;;;;;;5086207;28;1238;-57
2024/01/05 07:41:17;;;;;;;;;;;;;;;;;;5093700;28;1533;-57
2024/01/05 07:43:43;;;;;;;;;;;;;;;;;;5079374;28;1906;-57
2024/01/05 07:46:08;;;;;;;;;;;;;;;;;;5074992;28;1223;-57
2024/01/05 07:48:34;;;;;;;;;;;;;;;;;;5074464;28;840;-57
2024/01/05 07:51:03;;;;;;;;;;;;;;;;;;5074588;28;938;-57
2024/01/05 07:53:28;;;;;;;;;;;;;;;;;;5075707;28;1266;-57
2024/01/05 07:55:54;;;;;;;;;;;;;;;;;;5075383;28;982;-57
2024/01/05 07:58:19;;;;;;;;;;;;;;;;;;5075620;28;939;-57
2024/01/05 08:00:44;;;;;;;;;;;;;;;;;;5075259;28;994;-57
2024/01/05 08:03:11;;;;;;;;;;;;;;;;;;5073603;28;1981;-57
2024/01/05 08:05:36;;;;;;;;;;;;;;;;;;5092021;28;1772;-56
2024/01/05 08:08:02;;;;;;;;;;;;;;;;;;5094511;28;1230;-57
2024/01/05 08:10:27;;;;;;;;;;;;;;;;;;5095350;28;817;-58
2024/01/05 08:12:54;;;;;;;;;;;;;;;;;;5095260;28;936;-58
2024/01/05 08:15:19;;;;;;;;;;;;;;;;;;5095444;28;944;-56
2024/01/05 08:17:44;;;;;;;;;;;;;;;;;;5094022;28;840;-57
2024/01/05 08:20:10;;;;;;;;;;;;;;;;;;5095339;28;896;-57
2024/01/05 08:22:36;;;;;;;;;;;;;;;;;;5095145;28;974;-57
2024/01/05 08:25:02;;;;;;;;;;;;;;;;;;5095344;28;1890;-57
2024/01/05 08:27:28;;;;;;;;;;;;;;;;;;5095133;28;1073;-57
2024/01/05 08:29:53;;;;;;;;;;;;;;;;;;5095240;28;947;-57
2024/01/05 08:32:18;;;;;;;;;;;;;;;;;;5094893;28;877;-60
2024/01/05 08:34:44;;;;;;;;;;;;;;;;;;5093221;28;1167;-57
2024/01/05 08:37:09;;;;;;;;;;;;;;;;;;5081037;28;1151;-57
2024/01/05 08:39:34;;;;;;;;;;;;;;;;;;5082023;28;1160;-56
2024/01/05 08:41:59;;;;;;;;;;;;;;;;;;5083283;28;1210;-58
2024/01/05 08:44:25;;;;;;;;;;;;;;;;;;5093036;28;1968;-57
2024/01/05 08:46:50;;;;;;;;;;;;;;;;;;5093606;28;912;-56
2024/01/05 08:49:15;;;;;;;;;;;;;;;;;;5095219;28;899;-57
2024/01/05 08:51:43;;;;;;;;;;;;;;;;;;5095470;28;860;-57
2024/01/05 08:54:09;;;;;;;;;;;;;;;;;;5095904;28;1227;-57
2024/01/05 08:56:35;;;;;;;;;;;;;;;;;;5094647;28;923;-57
2024/01/05 08:59:00;;;;;;;;;;;;;;;;;;5095873;28;1006;-57
2024/01/05 09:01:26;;;;;;;;;;;;;;;;;;5095778;28;917;-57
2024/01/05 09:03:52;;;;;;;;;;;;;;;;;;5095097;28;1875;-57
2024/01/05 09:06:17;;;;;;;;;;;;;;;;;;5095210;28;868;-56
2024/01/05 09:08:42;;;;;;;;;;;;;;;;;;5095899;28;1014;-57
2024/01/05 09:11:07;;;;;;;;;;;;;;;;;;5094374;28;844;-60
2024/01/05 09:13:33;;;;;;;;;;;;;;;;;;5095775;28;872;-58
2024/01/05 09:15:58;;;;;;;;;;;;;;;;;;5094641;28;907;-57
2024/01/05 09:18:23;;;;;;;;;;;;;;;;;;5095638;28;860;-59
2024/01/05 09:20:50;;;;;;;;;;;;;;;;;;5095526;28;915;-57
2024/01/05 09:23:16;;;;;;;;;;;;;;;;;;5095841;28;1949;-56
2024/01/05 09:25:41;;;;;;;;;;;;;;;;;;5095109;28;935;-56
2024/01/05 09:28:06;;;;;;;;;;;;;;;;;;5092791;28;828;-58
2024/01/05 09:30:32;;;;;;;;;;;;;;;;;;5094099;28;829;-56
2024/01/05 09:32:57;;;;;;;;;;;;;;;;;;5094511;28;895;-58
2024/01/05 09:35:24;;;;;;;;;;;;;;;;;;5093809;28;1042;-57
2024/01/05 09:37:50;;;;;;;;;;;;;;;;;;5092994;28;971;-58
2024/01/05 09:40:15;;;;;;;;;;;;;;;;;;5094479;28;856;-59
2024/01/05 09:42:48;;;;;;;;;;;;;;;;;;5094086;28;875;-57
2024/01/05 09:45:14;;;;;;;;;;;;;;;;;;5093954;28;1889;-57
2024/01/05 09:47:41;;;;;;;;;;;;;;;;;;5094015;28;861;-57
2024/01/05 09:50:08;;;;;;;;;;;;;;;;;;5092736;28;1181;-56
2024/01/05 09:52:33;;;;;;;;;;;;;;;;;;5093933;28;833;-57
2024/01/05 09:54:58;;;;;;;;;;;;;;;;;;5093475;28;948;-57
2024/01/05 09:57:25;;;;;;;;;;;;;;;;;;5093607;28;829;-57
2024/01/05 09:59:50;;;;;;;;;;;;;;;;;;5093974;28;986;-58
2024/01/05 10:02:21;;;;;;;;;;;;;;;;;;5093431;28;812;-57
2024/01/05 10:04:46;;;;;;;;;;;;;;;;;;5093561;28;1898;-57
2024/01/05 10:07:12;;;;;;;;;;;;;;;;;;5093791;28;852;-57
2024/01/05 10:09:48;;;;;;;;;;;;;;;;;;5093773;28;836;-58
2024/01/05 10:12:13;;;;;;;;;;;;;;;;;;5093081;28;956;-58
2024/01/05 10:14:38;;;;;;;;;;;;;;;;;;5093265;28;859;-57
2024/01/05 10:17:07;;;;;;;;;;;;;;;;;;5093573;28;896;-55
2024/01/05 10:19:33;;;;;;;;;;;;;;;;;;5093821;28;922;-54
2024/01/05 10:22:07;;;;;;;;;;;;;;;;;;5093768;28;910;-54
2024/01/05 10:24:32;;;;;;;;;;;;;;;;;;5093445;28;1902;-56
2024/01/05 10:27:04;;;;;;;;;;;;;;;;;;5094546;28;1076;-56
2024/01/05 10:29:33;;;;;;;;;;;;;;;;;;5097817;28;848;-56
2024/01/05 10:32:14;;;;;;;;;;;;;;;;;;5097704;28;836;-56
2024/01/05 10:34:43;;;;;;;;;;;;;;;;;;5097909;28;828;-56
2024/01/05 10:37:09;;;;;;;;;;;;;;;;;;5096687;28;899;-56
2024/01/05 10:39:35;;;;;;;;;;;;;;;;;;5097674;28;816;-55
2024/01/05 10:42:22;;;;;;;;;;;;;;;;;;5097794;28;821;-56
2024/01/05 10:44:48;;;;;;;;;;;;;;;;;;5097292;28;1955;-56
2024/01/05 10:47:17;;;;;;;;;;;;;;;;;;5097486;28;1054;-55
2024/01/05 10:49:50;;;;;;;;;;;;;;;;;;5097757;28;920;-56
2024/01/05 10:52:25;;;;;;;;;;;;;;;;;;5097662;28;880;-56
2024/01/05 10:54:51;;;;;;;;;;;;;;;;;;5097640;28;921;-56
2024/01/05 10:57:17;;;;;;;;;;;;;;;;;;5096895;28;968;-56
2024/01/05 10:59:46;;;;;;;;;;;;;;;;;;5097412;28;815;-56
2024/01/05 11:02:22;;;;;;;;;;;;;;;;;;5097166;28;899;-53
2024/01/05 11:04:53;;;;;;;;;;;;;;;;;;5096865;28;1969;-56
2024/01/05 11:07:18;;;;;;;;;;;;;;;;;;5097252;28;894;-56
2024/01/05 11:09:44;;;;;;;;;;;;;;;;;;5097342;28;841;-56
2024/01/05 11:12:12;;;;;;;;;;;;;;;;;;5096615;28;948;-56
2024/01/05 11:14:50;;;;;;;;;;;;;;;;;;5096772;28;978;-56
2024/01/05 11:17:32;;;;;;;;;;;;;;;;;;5096584;28;968;-56
2024/01/05 11:20:12;;;;;;;;;;;;;;;;;;5096788;28;1085;-56
2024/01/05 11:22:39;;;;;;;;;;;;;;;;;;5096843;28;903;-56
2024/01/05 11:25:05;;;;;;;;;;;;;;;;;;5096777;28;1960;-57
2024/01/05 11:27:31;;;;;;;;;;;;;;;;;;5096294;28;1003;-56
2024/01/05 11:29:57;;;;;;;;;;;;;;;;;;5096594;28;948;-56
2024/01/05 11:32:46;;;;;;;;;;;;;;;;;;5094770;28;1105;-57
2024/01/05 11:35:19;;;;;;;;;;;;;;;;;;5096546;28;900;-56
2024/01/05 11:37:45;;;;;;;;;;;;;;;;;;5096459;28;872;-56
2024/01/05 11:40:26;;;;;;;;;;;;;;;;;;5096108;28;991;-56
2024/01/05 11:42:55;;;;;;;;;;;;;;;;;;5096231;28;818;-56
2024/01/05 11:45:43;;;;;;;;;;;;;;;;;;5094677;28;1959;-57
2024/01/05 11:48:08;;;;;;;;;;;;;;;;;;5092826;28;1617;-55
2024/01/05 11:50:34;;;;;;;;;;;;;;;;;;5096401;28;1042;-57
2024/01/05 11:53:12;;;;;;;;;;;;;;;;;;5096293;28;959;-58
2024/01/05 11:55:42;;;;;;;;;;;;;;;;;;5096575;28;1010;-57
2024/01/05 11:58:08;;;;;;;;;;;;;;;;;;5095202;28;779;-56
2024/01/05 12:00:34;;;;;;;;;;;;;;;;;;5095919;28;880;-57
2024/01/05 12:03:08;;;;;;;;;;;;;;;;;;5095449;28;869;-58
2024/01/05 12:05:33;;;;;;;;;;;;;;;;;;5095549;28;962;-58
2024/01/05 12:07:59;;;;;;;;;;;;;;;;;;5095867;28;991;-57
2024/01/05 12:10:27;;;;;;;;;;;;;;;;;;5095781;28;1324;-57
2024/01/05 12:12:52;;;;;;;;;;;;;;;;;;5095552;28;952;-57
2024/01/05 12:15:18;;;;;;;;;;;;;;;;;;5095320;28;840;-57
2024/01/05 12:17:43;;;;;;;;;;;;;;;;;;5095521;28;860;-57
2024/01/05 12:20:11;;;;;;;;;;;;;;;;;;5095657;28;920;-56
2024/01/05 12:22:36;;;;;;;;;;;;;;;;;;5095176;28;1271;-57
2024/01/05 12:25:03;;;;;;;;;;;;;;;;;;5095625;28;1977;-57
2024/01/05 12:27:35;;;;;;;;;;;;;;;;;;5095328;28;935;-56
2024/01/05 12:30:00;;;;;;;;;;;;;;;;;;5095571;28;963;-56
2024/01/05 12:32:28;;;;;;;;;;;;;;;;;;5095215;28;979;-57
2024/01/05 12:34:53;;;;;;;;;;;;;;;;;;5095420;28;844;-57
2024/01/05 12:37:19;;;;;;;;;;;;;;;;;;5095258;28;991;-57
2024/01/05 12:39:44;;;;;;;;;;;;;;;;;;5095451;28;891;-57
2024/01/05 12:42:09;;;;;;;;;;;;;;;;;;5094910;28;998;-57
2024/01/05 12:44:35;;;;;;;;;;;;;;;;;;5093912;28;1964;-57
2024/01/05 12:47:00;;;;;;;;;;;;;;;;;;5095243;28;871;-57
2024/01/05 12:49:27;;;;;;;;;;;;;;;;;;5094566;28;923;-58
2024/01/05 12:51:52;;;;;;;;;;;;;;;;;;5095380;28;812;-57
2024/01/05 12:54:20;;;;;;;;;;;;;;;;;;5095079;28;1081;-58
2024/01/05 12:56:46;;;;;;;;;;;;;;;;;;5095147;28;812;-57
2024/01/05 12:59:18;;;;;;;;;;;;;;;;;;5094607;28;855;-58
2024/01/05 13:01:43;;;;;;;;;;;;;;;;;;5095093;28;896;-56
2024/01/05 13:04:08;;;;;;;;;;;;;;;;;;5094876;28;1906;-56
2024/01/05 13:06:37;;;;;;;;;;;;;;;;;;5095024;28;859;-57
2024/01/05 13:09:02;;;;;;;;;;;;;;;;;;5094200;28;844;-57
2024/01/05 13:11:27;;;;;;;;;;;;;;;;;;5094665;28;919;-57
2024/01/05 13:13:52;;;;;;;;;;;;;;;;;;5094331;28;879;-57
2024/01/05 13:16:18;;;;;;;;;;;;;;;;;;5094429;28;808;-57
2024/01/05 13:18:43;;;;;;;;;;;;;;;;;;5094490;28;804;-57
2024/01/05 13:21:09;;;;;;;;;;;;;;;;;;5094455;28;935;-57
2024/01/05 13:23:34;;;;;;;;;;;;;;;;;;5093222;28;1906;-56
2024/01/05 13:26:01;;;;;;;;;;;;;;;;;;5094338;28;860;-58
2024/01/05 13:28:26;;;;;;;;;;;;;;;;;;5093680;28;937;-58
2024/01/05 13:30:51;;;;;;;;;;;;;;;;;;5094512;28;884;-58
2024/01/05 13:33:17;;;;;;;;;;;;;;;;;;5095438;28;863;-58
2024/01/05 13:35:42;;;;;;;;;;;;;;;;;;5095155;28;809;-58
2024/01/05 13:38:07;;;;;;;;;;;;;;;;;;5094397;28;927;-58
2024/01/05 13:40:33;;;;;;;;;;;;;;;;;;5094257;28;781;-57
2024/01/05 13:42:58;;;;;;;;;;;;;;;;;;5093775;28;853;-57
2024/01/05 13:45:23;;;;;;;;;;;;;;;;;;5093845;28;1897;-57
2024/01/05 13:47:48;;;;;;;;;;;;;;;;;;5094246;28;932;-58
2024/01/05 13:50:14;;;;;;;;;;;;;;;;;;5093937;28;913;-58
2024/01/05 13:52:39;;;;;;;;;;;;;;;;;;5093920;28;863;-57
2024/01/05 13:55:05;;;;;;;;;;;;;;;;;;5093137;28;1031;-56
2024/01/05 13:57:30;;;;;;;;;;;;;;;;;;5094134;28;1637;-58
2024/01/05 13:59:55;;;;;;;;;;;;;;;;;;5094219;28;824;-56
2024/01/05 14:02:20;;;;;;;;;;;;;;;;;;5095813;28;833;-56
2024/01/05 14:04:47;;;;;;;;;;;;;;;;;;5097883;28;2387;-58
2024/01/05 14:07:12;;;;;;;;;;;;;;;;;;5098345;28;892;-57
2024/01/05 14:09:38;;;;;;;;;;;;;;;;;;5098627;28;880;-57
2024/01/05 14:12:03;;;;;;;;;;;;;;;;;;5097722;28;881;-57
2024/01/05 14:14:28;;;;;;;;;;;;;;;;;;5098466;28;962;-58
2024/01/05 14:16:56;;;;;;;;;;;;;;;;;;5098173;28;1125;-57
2024/01/05 14:19:22;;;;;;;;;;;;;;;;;;5098411;28;820;-56
2024/01/05 14:21:47;;;;;;;;;;;;;;;;;;5098499;28;911;-57
2024/01/05 14:24:12;;;;;;;;;;;;;;;;;;5096674;28;1910;-57
2024/01/05 14:26:37;;;;;;;;;;;;;;;;;;5097898;28;1083;-57
2024/01/05 14:29:04;;;;;;;;;;;;;;;;;;5098140;28;1109;-57
2024/01/05 14:31:30;;;;;;;;;;;;;;;;;;5097753;28;964;-57
2024/01/05 14:33:56;;;;;;;;;;;;;;;;;;5097499;28;1030;-57
2024/01/05 14:36:23;;;;;;;;;;;;;;;;;;5097759;28;944;-57
2024/01/05 14:38:49;;;;;;;;;;;;;;;;;;5096347;28;753;-58
2024/01/05 14:41:14;;;;;;;;;;;;;;;;;;5097311;28;841;-57
2024/01/05 14:43:39;;;;;;;;;;;;;;;;;;5096100;28;1956;-57
2024/01/05 14:46:08;;;;;;;;;;;;;;;;;;5097896;28;810;-57
2024/01/05 14:48:34;;;;;;;;;;;;;;;;;;5097116;28;879;-57
2024/01/05 14:50:59;;;;;;;;;;;;;;;;;;5097473;28;923;-56
2024/01/05 14:53:25;;;;;;;;;;;;;;;;;;5096923;28;872;-55
2024/01/05 14:55:50;;;;;;;;;;;;;;;;;;5096954;28;1007;-56
2024/01/05 14:58:15;;;;;;;;;;;;;;;;;;5097157;28;853;-56
2024/01/05 15:00:40;;;;;;;;;;;;;;;;;;5096800;28;824;-56
2024/01/05 15:03:06;;;;;;;;;;;;;;;;;;5097152;28;919;-56
2024/01/05 15:05:31;;;;;;;;;;;;;;;;;;5096926;28;1902;-56
2024/01/05 15:07:56;;;;;;;;;;;;;;;;;;5096581;28;824;-56
2024/01/05 15:10:22;;;;;;;;;;;;;;;;;;5096391;28;896;-55
2024/01/05 15:12:50;;;;;;;;;;;;;;;;;;5096015;28;1065;-56
2024/01/05 15:15:15;;;;;;;;;;;;;;;;;;5096179;28;895;-57
2024/01/05 15:17:40;;;;;;;;;;;;;;;;;;5096284;28;840;-56
2024/01/05 15:20:06;;;;;;;;;;;;;;;;;;5095820;28;1134;-55
2024/01/05 15:22:32;;;;;;;;;;;;;;;;;;5096026;28;837;-56
2024/01/05 15:24:57;;;;;;;;;;;;;;;;;;5095628;28;1970;-56
2024/01/05 15:27:22;;;;;;;;;;;;;;;;;;5096291;28;832;-56
2024/01/05 15:29:47;;;;;;;;;;;;;;;;;;5096593;28;876;-56
2024/01/05 15:32:13;;;;;;;;;;;;;;;;;;5096891;28;833;-56
2024/01/05 15:34:41;;;;;;;;;;;;;;;;;;5096430;28;939;-56
2024/01/05 15:37:06;;;;;;;;;;;;;;;;;;5096017;28;1631;-56
2024/01/05 15:39:32;;;;;;;;;;;;;;;;;;5096067;28;883;-56
2024/01/05 15:41:57;;;;;;;;;;;;;;;;;;5096527;28;978;-56
2024/01/05 15:44:22;;;;;;;;;;;;;;;;;;5096450;28;2376;-55
2024/01/05 15:46:47;;;;;;;;;;;;;;;;;;5096129;28;904;-57
2024/01/05 15:49:13;;;;;;;;;;;;;;;;;;5096025;28;919;-57
2024/01/05 15:51:38;;;;;;;;;;;;;;;;;;5096258;28;841;-56
2024/01/05 15:54:04;;;;;;;;;;;;;;;;;;5095762;28;897;-55
2024/01/05 15:56:29;;;;;;;;;;;;;;;;;;5096161;28;828;-55
2024/01/05 15:58:54;;;;;;;;;;;;;;;;;;5095633;28;848;-56
2024/01/05 16:01:20;;;;;;;;;;;;;;;;;;5096091;28;789;-56
2024/01/05 16:03:47;;;;;;;;;;;;;;;;;;5095883;28;1897;-53
2024/01/05 16:06:15;;;;;;;;;;;;;;;;;;5095845;28;844;-53
2024/01/05 16:08:41;;;;;;;;;;;;;;;;;;5095422;28;829;-54
2024/01/05 16:11:06;;;;;;;;;;;;;;;;;;5095970;28;844;-57
2024/01/05 16:13:31;;;;;;;;;;;;;;;;;;5078903;28;1210;-58
2024/01/05 16:16:10;;;;;;;;;;;;;;;;;;5073952;28;1156;-57
2024/01/05 16:18:35;;;;;;;;;;;;;;;;;;5075385;28;900;-57
2024/01/05 16:21:01;;;;;;;;;;;;;;;;;;5074779;28;878;-56
2024/01/05 16:23:27;;;;;;;;;;;;;;;;;;5075051;28;1906;-57
2024/01/05 16:25:52;;;;;;;;;;;;;;;;;;5074341;28;928;-58
2024/01/05 16:28:17;;;;;;;;;;;;;;;;;;5075265;28;868;-57
2024/01/05 16:30:43;;;;;;;;;;;;;;;;;;5075410;28;821;-58
2024/01/05 16:33:08;;;;;;;;;;;;;;;;;;5075081;28;789;-57
2024/01/05 16:35:33;;;;;;;;;;;;;;;;;;5074650;28;856;-57
2024/01/05 16:37:58;;;;;;;;;;;;;;;;;;5074462;28;891;-58
2024/01/05 16:40:24;;;;;;;;;;;;;;;;;;5074533;28;1004;-57
2024/01/05 16:42:49;;;;;;;;;;;;;;;;;;5075038;28;861;-57
2024/01/05 16:45:14;;;;;;;;;;;;;;;;;;5074222;28;1951;-57
2024/01/05 16:47:43;;;;;;;;;;;;;;;;;;5074430;28;870;-57
2024/01/05 16:50:10;;;;;;;;;;;;;;;;;;5074371;28;907;-57
2024/01/05 16:52:36;;;;;;;;;;;;;;;;;;5074248;28;840;-57
2024/01/05 16:55:01;;;;;;;;;;;;;;;;;;5074042;28;1231;-57
2024/01/05 16:57:27;;;;;;;;;;;;;;;;;;5074645;28;912;-57
2024/01/05 16:59:52;;;;;;;;;;;;;;;;;;5073974;28;891;-58
2024/01/05 17:02:18;;;;;;;;;;;;;;;;;;5073878;28;916;-57
2024/01/05 17:04:43;;;;;;;;;;;;;;;;;;5073928;28;1882;-57
2024/01/05 17:07:08;;;;;;;;;;;;;;;;;;5073919;28;840;-57